Time;durP1;ratioP1;P1;durP2;ratioP2;P2;SDS_P1;SDS_P2;PMS_P1;PMS_P2;Temp;Humidity;BMP_temperature;BMP_pressure;BME280_temperature;BME280_humidity;BME280_pressure;Samples;Min_cycle;Max_cycle;Signal;HPM_P1;HPM_P2
2021/05/03 00:00:10;;;;;;;0.60;0.60;;;;;;;5.88;63.22;97300.31;29395;224;63008;-60
2021/05/03 00:00:41;;;;;;;0.60;0.60;;;;;;;5.84;63.63;97304.56;29395;199;63004;-60
2021/05/03 00:01:13;;;;;;;0.60;0.60;;;;;;;5.83;63.60;97305.63;29394;268;64013;-60
2021/05/03 00:01:44;;;;;;;0.60;0.60;;;;;;;5.83;63.45;97305.63;29395;210;63005;-60
2021/05/03 00:02:15;;;;;;;0.50;0.50;;;;;;;5.80;63.67;97302.63;29395;214;63009;-59
2021/05/03 00:02:46;;;;;;;0.60;0.60;;;;;;;5.77;63.58;97303.13;29395;211;63005;-59
2021/05/03 00:03:17;;;;;;;0.50;0.50;;;;;;;5.75;63.88;97311.44;29395;290;63013;-59
2021/05/03 00:03:49;;;;;;;0.52;0.52;;;;;;;5.74;64.04;97301.75;29395;220;63005;-59
2021/05/03 00:04:21;;;;;;;0.60;0.60;;;;;;;5.73;64.03;97302.81;29395;239;63009;-60
2021/05/03 00:04:52;;;;;;;0.60;0.60;;;;;;;5.74;64.25;97304.44;29395;211;63005;-59
2021/05/03 00:05:26;;;;;;;0.60;0.60;;;;;;;5.76;63.68;97302.31;29395;312;63018;-59
2021/05/03 00:05:58;;;;;;;0.60;0.60;;;;;;;5.79;63.33;97306.38;29395;233;63004;-60
2021/05/03 00:06:29;;;;;;;0.60;0.60;;;;;;;5.77;62.99;97298.56;29394;230;64013;-60
2021/05/03 00:07:00;;;;;;;0.60;0.60;;;;;;;5.78;63.32;97305.56;29395;215;63004;-59
2021/05/03 00:07:32;;;;;;;0.60;0.60;;;;;;;5.89;62.18;97296.53;29395;219;63009;-59
2021/05/03 00:08:04;;;;;;;0.50;0.50;;;;;;;5.89;62.09;97307.31;29395;224;63004;-59
2021/05/03 00:08:35;;;;;;;0.60;0.60;;;;;;;5.87;62.43;97304.06;29395;350;63009;-59
2021/05/03 00:09:07;;;;;;;0.60;0.60;;;;;;;5.86;62.48;97301.63;29395;216;63005;-59
2021/05/03 00:09:38;;;;;;;0.60;0.60;;;;;;;5.83;62.33;97302.13;29395;279;63026;-60
2021/05/03 00:10:10;;;;;;;0.60;0.60;;;;;;;5.80;62.66;97303.44;29395;219;63000;-60
2021/05/03 00:10:42;;;;;;;0.52;0.52;;;;;;;5.78;62.48;97305.56;29395;221;63009;-59
2021/05/03 00:11:13;;;;;;;0.60;0.60;;;;;;;5.76;62.78;97302.31;29395;204;63000;-60
2021/05/03 00:11:45;;;;;;;0.60;0.60;;;;;;;5.76;62.87;97313.06;29394;202;64013;-60
2021/05/03 00:12:16;;;;;;;0.60;0.60;;;;;;;5.73;62.88;97306.31;29395;208;63005;-59
2021/05/03 00:12:48;;;;;;;0.60;0.60;;;;;;;5.72;62.84;97306.56;29395;248;63009;-59
2021/05/03 00:13:20;;;;;;;0.60;0.60;;;;;;;5.70;63.07;97297.91;29395;376;63004;-59
2021/05/03 00:13:51;;;;;;;0.60;0.60;;;;;;;5.69;63.21;97305.19;29395;215;63009;-59
2021/05/03 00:14:23;;;;;;;0.60;0.60;;;;;;;5.69;63.34;97312.44;29395;205;63004;-60
2021/05/03 00:14:54;;;;;;;0.60;0.60;;;;;;;5.71;62.86;97304.94;29395;202;63009;-60
2021/05/03 00:15:25;;;;;;;0.60;0.60;;;;;;;5.71;63.01;97300.38;29395;202;63004;-59
2021/05/03 00:15:57;;;;;;;0.60;0.60;;;;;;;5.71;62.77;97307.62;29395;235;63008;-59
2021/05/03 00:16:29;;;;;;;0.60;0.60;;;;;;;5.70;63.13;97303.31;29395;203;63011;-60
2021/05/03 00:17:00;;;;;;;0.60;0.60;;;;;;;5.69;63.25;97309.75;29394;231;64014;-59
2021/05/03 00:17:31;;;;;;;0.60;0.60;;;;;;;5.67;63.25;97306.50;29395;197;63013;-59
2021/05/03 00:18:03;;;;;;;0.60;0.60;;;;;;;5.68;62.90;97305.44;29395;210;63009;-60
2021/05/03 00:18:34;;;;;;;0.60;0.60;;;;;;;5.67;63.06;97303.81;29395;240;63005;-59
2021/05/03 00:19:05;;;;;;;0.60;0.60;;;;;;;5.65;63.40;97311.31;29395;231;63009;-60
2021/05/03 00:19:36;;;;;;;0.55;0.55;;;;;;;5.63;64.25;97302.69;29395;369;63005;-60
2021/05/03 00:20:10;;;;;;;0.50;0.50;;;;;;;5.60;63.52;97306.69;29395;210;63009;-59
2021/05/03 00:20:41;;;;;;;0.60;0.60;;;;;;;5.59;63.90;97304.25;29395;274;63004;-60
2021/05/03 00:21:12;;;;;;;0.60;0.60;;;;;;;5.58;64.15;97305.31;29394;213;64013;-59
2021/05/03 00:21:43;;;;;;;0.60;0.60;;;;;;;5.57;63.66;97303.69;29395;242;63004;-59
2021/05/03 00:22:14;;;;;;;0.60;0.60;;;;;;;5.56;64.02;97302.87;29395;224;63009;-58
2021/05/03 00:22:45;;;;;;;0.60;0.60;;;;;;;5.56;64.02;97297.47;29395;223;63004;-59
2021/05/03 00:23:16;;;;;;;0.60;0.60;;;;;;;5.55;63.61;97301.25;29395;230;63008;-59
2021/05/03 00:23:48;;;;;;;0.60;0.60;;;;;;;5.55;63.62;97306.62;29395;202;63005;-60
2021/05/03 00:24:19;;;;;;;0.60;0.60;;;;;;;5.54;63.69;97299.62;29395;221;63009;-60
2021/05/03 00:24:50;;;;;;;0.60;0.60;;;;;;;5.55;63.87;97300.41;29395;388;63009;-60
2021/05/03 00:25:22;;;;;;;0.50;0.50;;;;;;;5.54;63.80;97293.44;29395;202;63009;-60
2021/05/03 00:25:54;;;;;;;0.60;0.60;;;;;;;5.57;63.88;97303.69;29394;288;64009;-60
2021/05/03 00:26:25;;;;;;;0.60;0.60;;;;;;;5.57;63.50;97306.38;29395;214;63009;-60
2021/05/03 00:26:59;;;;;;;0.60;0.60;;;;;;;5.55;63.78;97295.03;29395;221;63005;-60
2021/05/03 00:27:30;;;;;;;0.60;0.60;;;;;;;5.55;63.92;97303.94;29394;202;64013;-59
2021/05/03 00:28:01;;;;;;;0.60;0.60;;;;;;;5.55;63.41;97301.25;29395;197;63004;-60
2021/05/03 00:28:33;;;;;;;0.60;0.60;;;;;;;5.55;63.16;97300.41;29395;218;63009;-60
2021/05/03 00:29:04;;;;;;;0.50;0.50;;;;;;;5.53;63.15;97298.00;29395;197;63004;-56
2021/05/03 00:29:35;;;;;;;0.60;0.60;;;;;;;5.53;63.32;97300.69;29395;225;63009;-59
2021/05/03 00:30:07;;;;;;;0.60;0.60;;;;;;;5.53;63.96;97302.56;29395;320;63004;-59
2021/05/03 00:30:38;;;;;;;0.60;0.60;;;;;;;5.52;63.74;97300.94;29395;202;63008;-56
2021/05/03 00:31:10;;;;;;;0.60;0.60;;;;;;;5.51;64.12;97304.69;29395;199;63005;-60
2021/05/03 00:31:41;;;;;;;0.50;0.50;;;;;;;5.50;64.17;97305.78;29394;198;64006;-60
2021/05/03 00:32:12;;;;;;;0.60;0.60;;;;;;;5.48;64.62;97305.19;29395;296;63005;-60
2021/05/03 00:32:44;;;;;;;0.60;0.60;;;;;;;5.47;64.07;97300.88;29394;238;64014;-59
2021/05/03 00:33:16;;;;;;;0.50;0.50;;;;;;;5.47;64.35;97304.38;29394;216;64009;-59
2021/05/03 00:33:47;;;;;;;0.60;0.60;;;;;;;5.48;64.52;97305.19;29395;264;63015;-60
2021/05/03 00:34:18;;;;;;;0.60;0.60;;;;;;;5.49;64.51;97296.06;29395;233;63005;-59
2021/05/03 00:34:49;;;;;;;0.60;0.60;;;;;;;5.47;64.11;97304.38;29395;222;63009;-59
2021/05/03 00:35:21;;;;;;;0.60;0.60;;;;;;;5.47;64.11;97298.19;29395;222;63004;-59
2021/05/03 00:35:52;;;;;;;0.60;0.60;;;;;;;5.47;64.11;97303.56;29395;247;63009;-59
2021/05/03 00:36:23;;;;;;;0.60;0.60;;;;;;;5.47;63.99;97306.25;29395;233;63004;-60
2021/05/03 00:36:54;;;;;;;0.60;0.60;;;;;;;5.45;64.08;97306.50;29395;204;63009;-59
2021/05/03 00:37:25;;;;;;;0.60;0.60;;;;;;;5.46;64.22;97308.16;29394;229;63995;-60
2021/05/03 00:37:56;;;;;;;0.60;0.60;;;;;;;5.45;64.29;97311.91;29395;221;63008;-60
2021/05/03 00:38:28;;;;;;;0.60;0.60;;;;;;;5.43;64.38;97305.94;29394;202;64008;-59
2021/05/03 00:38:59;;;;;;;0.60;0.60;;;;;;;5.41;64.81;97300.00;29394;227;64031;-59
2021/05/03 00:39:31;;;;;;;0.60;0.60;;;;;;;5.42;64.79;97306.19;29395;342;63005;-60
2021/05/03 00:40:04;;;;;;;0.60;0.60;;;;;;;5.41;64.88;97305.38;29395;232;63005;-59
2021/05/03 00:40:35;;;;;;;0.60;0.60;;;;;;;5.39;64.75;97308.31;29395;277;63005;-59
2021/05/03 00:41:06;;;;;;;0.60;0.60;;;;;;;5.36;65.00;97311.50;29395;241;63009;-59
2021/05/03 00:41:37;;;;;;;0.57;0.57;;;;;;;5.34;65.83;97300.19;29395;220;63005;-60
2021/05/03 00:42:08;;;;;;;0.60;0.60;;;;;;;5.33;65.40;97312.00;29395;199;63009;-59
2021/05/03 00:42:42;;;;;;;0.60;0.60;;;;;;;5.31;65.75;97300.66;29395;197;63005;-60
2021/05/03 00:43:19;;;;;;;0.60;0.60;;;;;;;5.31;65.29;97311.44;29395;213;63009;-60
2021/05/03 00:43:51;;;;;;;0.60;0.60;;;;;;;5.31;65.27;97306.06;29394;213;64000;-60
2021/05/03 00:44:25;;;;;;;0.60;0.60;;;;;;;5.31;65.18;97305.25;29395;232;63009;-59
2021/05/03 00:44:56;;;;;;;0.60;0.60;;;;;;;5.29;65.53;97310.87;29395;264;63004;-60
2021/05/03 00:45:30;;;;;;;0.60;0.60;;;;;;;5.29;65.56;97307.38;29395;271;63008;-60
2021/05/03 00:46:01;;;;;;;0.50;0.50;;;;;;;5.29;65.76;97308.19;29395;208;63004;-59
2021/05/03 00:46:32;;;;;;;0.50;0.50;;;;;;;5.29;65.79;97312.75;29395;229;63009;-59
2021/05/03 00:47:04;;;;;;;0.60;0.60;;;;;;;5.29;66.66;97308.19;29395;218;63005;-59
2021/05/03 00:47:37;;;;;;;0.60;0.60;;;;;;;5.28;66.08;97311.13;29395;241;63009;-59
2021/05/03 00:48:08;;;;;;;0.60;0.60;;;;;;;5.28;66.05;97319.19;29395;239;63012;-59
2021/05/03 00:48:39;;;;;;;0.50;0.50;;;;;;;5.27;66.56;97312.19;29394;233;64013;-59
2021/05/03 00:49:10;;;;;;;0.60;0.60;;;;;;;5.24;66.11;97310.78;29395;276;63005;-60
2021/05/03 00:49:41;;;;;;;0.50;0.50;;;;;;;5.23;65.95;97311.84;29395;210;63009;-59
2021/05/03 00:50:15;;;;;;;0.50;0.50;;;;;;;5.25;66.03;97312.44;29395;205;63005;-60
2021/05/03 00:50:47;;;;;;;0.60;0.60;;;;;;;5.29;65.40;97302.78;29395;225;63009;-60
2021/05/03 00:51:19;;;;;;;0.60;0.60;;;;;;;5.31;65.14;97305.25;29395;202;63004;-60
2021/05/03 00:51:50;;;;;;;0.60;0.60;;;;;;;5.31;64.86;97305.25;29395;227;63009;-60
2021/05/03 00:52:21;;;;;;;0.60;0.60;;;;;;;5.31;65.42;97311.44;29395;202;63004;-59
2021/05/03 00:52:52;;;;;;;0.60;0.60;;;;;;;5.30;65.63;97304.44;29395;199;63009;-60
2021/05/03 00:53:26;;;;;;;0.60;0.60;;;;;;;5.28;65.63;97309.25;29394;227;64008;-59
2021/05/03 00:53:57;;;;;;;0.60;0.60;;;;;;;5.28;65.61;97311.13;29395;233;63009;-60
2021/05/03 00:54:28;;;;;;;0.60;0.60;;;;;;;5.28;65.70;97306.56;29395;236;63005;-59
2021/05/03 00:54:59;;;;;;;0.60;0.60;;;;;;;5.28;66.14;97314.62;29395;231;63009;-60
2021/05/03 00:55:30;;;;;;;0.60;0.60;;;;;;;5.27;66.00;97318.37;29395;214;63008;-59
2021/05/03 00:56:02;;;;;;;0.60;0.60;;;;;;;5.28;66.21;97308.44;29395;205;63009;-59
2021/05/03 00:56:33;;;;;;;0.60;0.60;;;;;;;5.26;66.33;97310.56;29395;197;63005;-59
2021/05/03 00:57:06;;;;;;;0.60;0.60;;;;;;;5.25;66.23;97307.03;29395;202;63009;-60
2021/05/03 00:57:38;;;;;;;0.50;0.50;;;;;;;5.25;66.44;97311.59;29395;227;63005;-60
2021/05/03 00:58:12;;;;;;;0.50;0.50;;;;;;;5.26;66.04;97316.75;29395;206;63009;-59
2021/05/03 00:58:43;;;;;;;0.50;0.50;;;;;;;5.26;66.03;97314.06;29394;220;64009;-59
2021/05/03 00:59:15;;;;;;;0.60;0.60;;;;;;;5.26;66.00;97314.06;29395;258;63009;-59
2021/05/03 00:59:47;;;;;;;0.50;0.50;;;;;;;5.27;66.28;97317.56;29395;214;63004;-59
2021/05/03 01:00:23;;;;;;;0.50;0.50;;;;;;;5.29;66.36;97313.56;29395;280;63009;-60
2021/05/03 01:00:54;;;;;;;0.60;0.60;;;;;;;5.28;66.67;97322.69;29394;213;64008;-60
2021/05/03 01:01:25;;;;;;;0.50;0.50;;;;;;;5.28;67.38;97311.94;29395;264;63009;-60
2021/05/03 01:01:56;;;;;;;0.60;0.60;;;;;;;5.29;66.62;97318.94;29395;205;63005;-59
2021/05/03 01:02:27;;;;;;;0.60;0.60;;;;;;;5.30;66.00;97319.75;29395;224;63009;-59
2021/05/03 01:03:00;;;;;;;0.60;0.60;;;;;;;5.30;66.24;97317.87;29395;225;63005;-59
2021/05/03 01:03:31;;;;;;;0.60;0.60;;;;;;;5.31;66.39;97321.38;29395;227;63009;-60
2021/05/03 01:04:03;;;;;;;0.60;0.60;;;;;;;5.36;66.00;97319.59;29395;228;63005;-59
2021/05/03 01:04:34;;;;;;;0.50;0.50;;;;;;;5.41;65.71;97320.72;29395;241;63009;-59
2021/05/03 01:05:07;;;;;;;0.60;0.60;;;;;;;5.36;66.51;97319.59;29395;205;63004;-60
2021/05/03 01:05:39;;;;;;;0.50;0.50;;;;;;;5.34;66.71;97319.00;29394;236;64013;-60
2021/05/03 01:06:10;;;;;;;0.50;0.50;;;;;;;5.31;66.55;97319.50;29395;304;63004;-56
2021/05/03 01:06:41;;;;;;;0.60;0.60;;;;;;;5.34;66.51;97321.72;29395;199;63009;-59
2021/05/03 01:07:13;;;;;;;0.60;0.60;;;;;;;5.39;65.88;97316.41;29394;197;64008;-54
2021/05/03 01:07:46;;;;;;;0.60;0.60;;;;;;;5.43;65.67;97313.22;29395;225;63008;-59
2021/05/03 01:08:17;;;;;;;0.50;0.50;;;;;;;5.47;65.62;97314.34;29395;225;63005;-59
2021/05/03 01:08:48;;;;;;;0.60;0.60;;;;;;;5.47;65.44;97314.34;29394;212;64014;-59
2021/05/03 01:09:19;;;;;;;0.60;0.60;;;;;;;5.49;65.71;97317.59;29394;202;64009;-59
2021/05/03 01:09:50;;;;;;;0.57;0.57;;;;;;;5.52;65.67;97311.72;29395;208;63009;-59
2021/05/03 01:10:21;;;;;;;0.70;0.70;;;;;;;5.55;65.37;97311.19;29395;234;63005;-59
2021/05/03 01:10:52;;;;;;;0.60;0.60;;;;;;;5.53;65.29;97307.97;29395;211;63009;-59
2021/05/03 01:11:23;;;;;;;0.60;0.60;;;;;;;5.49;65.44;97313.03;29395;212;63005;-60
2021/05/03 01:11:54;;;;;;;0.60;0.60;;;;;;;5.45;66.48;97311.91;29395;222;63009;-60
2021/05/03 01:12:26;;;;;;;0.60;0.60;;;;;;;5.39;66.22;97316.41;29395;318;63008;-59
2021/05/03 01:12:58;;;;;;;0.50;0.50;;;;;;;5.38;66.20;97316.63;29395;268;63009;-59
2021/05/03 01:13:30;;;;;;;0.60;0.60;;;;;;;5.37;66.55;97315.00;29394;291;64009;-59
2021/05/03 01:14:01;;;;;;;0.50;0.50;;;;;;;5.40;66.52;97314.50;29395;202;63009;-60
2021/05/03 01:14:32;;;;;;;0.60;0.60;;;;;;;5.41;66.68;97320.72;29394;204;64009;-60
2021/05/03 01:15:10;;;;;;;0.50;0.50;;;;;;;5.40;66.54;97319.91;29395;202;63008;-59
2021/05/03 01:15:41;;;;;;;0.60;0.60;;;;;;;5.36;67.08;97319.59;29395;235;63005;-60
2021/05/03 01:16:16;;;;;;;0.60;0.60;;;;;;;5.33;66.75;97319.25;29394;218;64014;-59
2021/05/03 01:16:47;;;;;;;0.60;0.60;;;;;;;5.32;66.77;97321.13;29395;230;63005;-60
2021/05/03 01:17:19;;;;;;;0.60;0.60;;;;;;;5.41;66.69;97318.03;29395;209;63009;-61
2021/05/03 01:18:01;;;;;;;0.60;0.60;;;;;;;5.48;65.98;97318.66;29395;220;63005;-59
2021/05/03 01:18:36;;;;;;;0.60;0.60;;;;;;;5.51;65.81;97321.66;29395;251;63009;-60
2021/05/03 01:19:07;;;;;;;0.50;0.50;;;;;;;5.49;65.97;97328.38;29395;210;63005;-59
2021/05/03 01:19:39;;;;;;;0.50;0.50;;;;;;;5.44;66.90;97321.03;29395;234;63009;-59
2021/05/03 01:20:12;;;;;;;0.60;0.60;;;;;;;5.38;66.81;97317.47;29395;203;63004;-60
2021/05/03 01:20:44;;;;;;;0.60;0.60;;;;;;;5.39;67.10;97321.78;29394;203;64013;-55
2021/05/03 01:21:25;;;;;;;0.60;0.60;;;;;;;5.36;67.50;97324.97;29395;245;63004;-59
2021/05/03 01:21:57;;;;;;;0.60;0.60;;;;;;;5.34;67.91;97331.66;29394;233;64013;-59
2021/05/03 01:22:33;;;;;;;0.60;0.60;;;;;;;5.39;67.21;97323.66;29395;203;63004;-60
2021/05/03 01:23:06;;;;;;;0.60;0.60;;;;;;;5.44;67.05;97322.91;29395;223;63009;-59
2021/05/03 01:23:38;;;;;;;0.60;0.60;;;;;;;5.42;66.79;97322.34;29395;243;63005;-59
2021/05/03 01:24:09;;;;;;;0.60;0.60;;;;;;;5.36;67.72;97322.28;29395;240;63009;-59
2021/05/03 01:24:41;;;;;;;0.60;0.60;;;;;;;5.29;68.09;97324.31;29395;199;63005;-56
2021/05/03 01:25:13;;;;;;;0.60;0.60;;;;;;;5.25;67.83;97323.19;29395;237;63009;-59
2021/05/03 01:25:44;;;;;;;0.60;0.60;;;;;;;5.22;68.47;97326.37;29394;262;64009;-59
2021/05/03 01:26:15;;;;;;;0.55;0.55;;;;;;;5.18;68.08;97322.56;29395;199;63009;-59
2021/05/03 01:26:47;;;;;;;0.60;0.60;;;;;;;5.22;68.20;97323.69;29395;197;63005;-59
2021/05/03 01:27:18;;;;;;;0.60;0.60;;;;;;;5.24;67.82;97326.94;29394;222;64013;-59
2021/05/03 01:27:49;;;;;;;1.33;1.33;;;;;;;5.25;67.96;97323.19;29394;290;64009;-60
2021/05/03 01:28:20;;;;;;;0.60;0.60;;;;;;;5.23;67.95;97325.31;29395;229;63009;-60
2021/05/03 01:28:52;;;;;;;0.60;0.60;;;;;;;5.22;68.09;97330.94;29395;239;63004;-59
2021/05/03 01:29:24;;;;;;;0.60;0.60;;;;;;;5.17;67.79;97320.94;29395;198;63009;-59
2021/05/03 01:29:55;;;;;;;0.60;0.60;;;;;;;5.17;67.68;97328.19;29395;245;63004;-56
2021/05/03 01:30:39;;;;;;;0.60;0.60;;;;;;;5.15;67.75;97323.06;29395;202;63008;-59
2021/05/03 01:31:10;;;;;;;0.60;0.60;;;;;;;5.14;68.11;97321.44;29395;240;63005;-59
2021/05/03 01:31:46;;;;;;;0.60;0.60;;;;;;;5.15;68.47;97323.06;29395;209;63009;-59
2021/05/03 01:32:20;;;;;;;0.60;0.60;;;;;;;5.15;68.46;97323.06;29394;238;64009;-59
2021/05/03 01:32:51;;;;;;;0.60;0.60;;;;;;;5.15;68.34;97320.38;29395;261;63009;-60
2021/05/03 01:33:22;;;;;;;0.60;0.60;;;;;;;5.15;69.16;97325.75;29395;196;63005;-60
2021/05/03 01:33:53;;;;;;;0.60;0.60;;;;;;;5.11;69.40;97316.56;29395;197;63009;-58
2021/05/03 01:34:24;;;;;;;0.60;0.60;;;;;;;5.09;69.43;97318.66;29395;219;63005;-59
2021/05/03 01:34:57;;;;;;;0.60;0.60;;;;;;;5.07;68.97;97323.47;29395;205;63009;-59
2021/05/03 01:35:28;;;;;;;0.55;0.55;;;;;;;5.06;69.19;97324.53;29395;213;63004;-60
2021/05/03 01:35:59;;;;;;;0.60;0.60;;;;;;;5.04;69.54;97318.59;29394;236;64013;-59
2021/05/03 01:36:30;;;;;;;0.60;0.60;;;;;;;5.01;69.61;97332.53;29394;221;64009;-59
2021/05/03 01:37:02;;;;;;;0.52;0.52;;;;;;;5.05;69.15;97328.28;29395;226;63016;-59
2021/05/03 01:37:33;;;;;;;0.60;0.60;;;;;;;5.04;69.16;97321.28;29395;234;63004;-59
2021/05/03 01:38:06;;;;;;;0.60;0.60;;;;;;;5.03;68.93;97325.03;29394;208;64013;-60
2021/05/03 01:38:38;;;;;;;0.60;0.60;;;;;;;5.01;68.72;97324.47;29394;243;64009;-59
2021/05/03 01:39:11;;;;;;;0.60;0.60;;;;;;;5.02;68.65;97318.03;29395;229;63009;-60
2021/05/03 01:39:42;;;;;;;0.60;0.60;;;;;;;5.02;68.76;97326.09;29395;227;63005;-59
2021/05/03 01:40:13;;;;;;;0.60;0.60;;;;;;;5.07;68.68;97320.78;29373;197;63009;-59
2021/05/03 01:40:46;;;;;;;0.50;0.50;;;;;;;5.11;68.54;97327.31;29396;220;63008;-60
2021/05/03 01:41:18;;;;;;;0.50;0.50;;;;;;;5.14;68.27;97320.63;29394;202;64013;-60
2021/05/03 01:41:49;;;;;;;0.50;0.50;;;;;;;5.14;68.10;97324.13;29394;210;63991;-59
2021/05/03 01:42:22;;;;;;;0.60;0.60;;;;;;;5.15;68.27;97323.06;29395;196;63009;-59
2021/05/03 01:42:54;;;;;;;0.60;0.60;;;;;;;5.13;68.24;97325.19;29395;275;63004;-59
2021/05/03 01:43:27;;;;;;;0.50;0.50;;;;;;;5.12;68.37;97323.56;29395;214;63009;-60
2021/05/03 01:43:59;;;;;;;0.60;0.60;;;;;;;5.13;68.28;97327.88;29394;401;64009;-60
2021/05/03 01:44:30;;;;;;;0.60;0.60;;;;;;;5.10;68.59;97325.69;29395;280;63009;-60
2021/05/03 01:45:03;;;;;;;0.60;0.60;;;;;;;5.09;68.99;97324.06;29394;238;64008;-59
2021/05/03 01:45:36;;;;;;;0.60;0.60;;;;;;;5.13;68.46;97327.88;29395;228;63008;-60
2021/05/03 01:46:08;;;;;;;0.60;0.60;;;;;;;5.16;68.41;97324.69;29395;251;63005;-59
2021/05/03 01:46:39;;;;;;;0.50;0.50;;;;;;;5.16;68.28;97330.06;29395;239;63009;-59
2021/05/03 01:47:11;;;;;;;0.60;0.60;;;;;;;5.11;69.00;97330.00;29395;197;63005;-59
2021/05/03 01:47:43;;;;;;;0.60;0.60;;;;;;;5.04;69.75;97326.66;29395;282;63009;-59
2021/05/03 01:48:20;;;;;;;0.60;0.60;;;;;;;4.96;70.32;97330.56;29395;237;63005;-59
2021/05/03 01:48:51;;;;;;;0.60;0.60;;;;;;;4.91;70.01;97327.00;29394;232;64013;-59
2021/05/03 01:49:23;;;;;;;0.60;0.60;;;;;;;4.91;69.91;97337.75;29395;235;63005;-59
2021/05/03 01:49:54;;;;;;;0.60;0.60;;;;;;;4.91;69.87;97332.38;29394;204;64013;-59
2021/05/03 01:50:25;;;;;;;0.60;0.60;;;;;;;4.88;69.87;97330.16;29395;198;63004;-60
2021/05/03 01:50:58;;;;;;;0.52;0.52;;;;;;;4.89;69.92;97329.12;29395;197;63009;-59
2021/05/03 01:51:30;;;;;;;0.60;0.60;;;;;;;4.88;69.80;97333.69;29395;286;63004;-60
2021/05/03 01:52:02;;;;;;;0.60;0.60;;;;;;;4.88;69.88;97328.28;29395;235;63009;-59
2021/05/03 01:52:34;;;;;;;0.60;0.60;;;;;;;4.94;70.02;97326.50;29395;226;63004;-59
2021/05/03 01:53:07;;;;;;;0.60;0.60;;;;;;;4.95;69.47;97334.31;29395;228;63008;-56
2021/05/03 01:53:38;;;;;;;0.60;0.60;;;;;;;4.92;70.33;97324.06;29395;234;63005;-58
2021/05/03 01:54:09;;;;;;;0.60;0.60;;;;;;;4.89;70.00;97323.72;29394;198;64014;-59
2021/05/03 01:54:41;;;;;;;0.50;0.50;;;;;;;4.85;69.97;97338.75;29395;214;63005;-55
2021/05/03 01:55:14;;;;;;;0.50;0.50;;;;;;;4.84;69.94;97329.06;29394;258;64013;-59
2021/05/03 01:55:48;;;;;;;0.60;0.60;;;;;;;4.80;70.09;97330.59;29395;227;63005;-59
2021/05/03 01:56:20;;;;;;;0.60;0.60;;;;;;;4.80;70.22;97325.22;29395;221;63009;-59
2021/05/03 01:56:51;;;;;;;0.60;0.60;;;;;;;4.78;70.75;97328.16;29395;199;63004;-59
2021/05/03 01:57:22;;;;;;;0.60;0.60;;;;;;;4.77;70.61;97325.72;29395;203;63009;-60
2021/05/03 01:57:53;;;;;;;0.60;0.60;;;;;;;4.73;70.82;97341.50;29395;234;63004;-58
2021/05/03 01:58:26;;;;;;;0.60;0.60;;;;;;;4.66;71.55;97338.97;29373;237;63009;-59
2021/05/03 01:58:58;;;;;;;0.50;0.50;;;;;;;4.65;71.35;97337.34;29395;258;63004;-59
2021/05/03 01:59:33;;;;;;;0.60;0.60;;;;;;;4.65;71.11;97337.34;29395;215;63008;-60
2021/05/03 02:00:07;;;;;;;0.60;0.60;;;;;;;4.65;71.75;97339.22;29394;268;64008;-59
2021/05/03 02:00:40;;;;;;;2.47;2.37;;;;;;;4.63;71.40;97336.78;29395;222;63008;-60
2021/05/03 02:01:11;;;;;;;0.57;0.57;;;;;;;4.63;71.71;97336.78;29395;204;63005;-60
2021/05/03 02:01:42;;;;;;;0.52;0.52;;;;;;;4.62;71.36;97329.78;29395;271;63009;-60
2021/05/03 02:02:14;;;;;;;0.60;0.60;;;;;;;4.69;70.92;97338.50;29395;198;63005;-59
2021/05/03 02:02:49;;;;;;;0.60;0.60;;;;;;;4.70;70.69;97337.44;29395;298;63009;-60
2021/05/03 02:03:25;;;;;;;0.60;0.60;;;;;;;4.69;71.15;97335.81;29395;202;63005;-60
2021/05/03 02:03:56;;;;;;;0.60;0.60;;;;;;;4.67;71.62;97337.12;29373;204;63009;-59
2021/05/03 02:04:27;;;;;;;0.60;0.60;;;;;;;4.62;71.68;97335.16;29395;247;63004;-60
2021/05/03 02:04:59;;;;;;;0.60;0.60;;;;;;;4.61;71.36;97333.53;29395;199;63009;-59
2021/05/03 02:05:30;;;;;;;0.60;0.60;;;;;;;4.62;71.43;97335.16;29394;231;64009;-59
2021/05/03 02:06:03;;;;;;;0.60;0.60;;;;;;;4.68;71.13;97334.19;29395;266;63009;-59
2021/05/03 02:06:37;;;;;;;0.60;0.60;;;;;;;4.69;71.34;97341.19;29371;217;64009;-60
2021/05/03 02:07:08;;;;;;;0.60;0.60;;;;;;;4.68;71.57;97333.37;29372;329;63008;-60
2021/05/03 02:07:40;;;;;;;0.60;0.60;;;;;;;4.67;71.47;97337.12;29373;211;63005;-59
2021/05/03 02:08:12;;;;;;;0.60;0.60;;;;;;;4.70;70.96;97331.25;29373;220;63009;-60
2021/05/03 02:08:44;;;;;;;0.60;0.60;;;;;;;4.71;70.75;97332.87;29395;233;63005;-60
2021/05/03 02:09:18;;;;;;;0.60;0.60;;;;;;;4.74;70.95;97336.97;29395;340;63009;-59
2021/05/03 02:09:49;;;;;;;0.60;0.60;;;;;;;4.75;70.51;97333.22;29373;221;63005;-59
2021/05/03 02:10:21;;;;;;;0.60;0.60;;;;;;;4.75;70.39;97330.53;29373;226;63009;-60
2021/05/03 02:10:54;;;;;;;0.60;0.60;;;;;;;4.72;70.60;97327.25;29395;319;63005;-60
2021/05/03 02:11:25;;;;;;;0.60;0.60;;;;;;;4.72;70.56;97324.56;29394;306;64013;-60
2021/05/03 02:11:56;;;;;;;0.60;0.60;;;;;;;4.71;70.71;97333.69;29373;224;63004;-59
2021/05/03 02:12:27;;;;;;;0.60;0.60;;;;;;;4.71;70.85;97330.19;29395;237;63009;-60
2021/05/03 02:13:00;;;;;;;0.60;0.60;;;;;;;4.69;70.88;97329.62;29395;236;63004;-59
2021/05/03 02:13:35;;;;;;;0.60;0.60;;;;;;;4.63;71.19;97326.03;29395;339;63009;-59
2021/05/03 02:14:08;;;;;;;0.60;0.60;;;;;;;4.60;71.53;97321.13;29372;202;63004;-60
2021/05/03 02:14:41;;;;;;;0.80;0.80;;;;;;;4.58;71.07;97323.25;29373;235;63008;-59
2021/05/03 02:15:13;;;;;;;0.60;0.60;;;;;;;4.58;71.40;97323.25;29395;232;63016;-60
2021/05/03 02:15:47;;;;;;;0.60;0.60;;;;;;;4.57;71.27;97324.31;29395;216;63009;-60
2021/05/03 02:16:19;;;;;;;0.60;0.60;;;;;;;4.55;71.45;97329.12;29394;296;64009;-60
2021/05/03 02:16:50;;;;;;;0.60;0.60;;;;;;;4.55;71.31;97326.44;29395;239;63009;-60
2021/05/03 02:17:21;;;;;;;0.60;0.60;;;;;;;4.54;71.36;97327.50;29395;303;63005;-59
2021/05/03 02:17:53;;;;;;;0.60;0.60;;;;;;;4.53;71.48;97323.16;29373;220;63009;-59
2021/05/03 02:18:24;;;;;;;0.60;0.60;;;;;;;4.54;71.25;97322.12;29395;207;63005;-59
2021/05/03 02:18:55;;;;;;;0.60;0.60;;;;;;;4.53;71.30;97325.84;29395;298;63009;-60
2021/05/03 02:19:27;;;;;;;0.60;0.60;;;;;;;4.53;71.32;97325.84;29395;262;63000;-60
2021/05/03 02:19:59;;;;;;;0.60;0.60;;;;;;;4.52;71.68;97326.09;29395;203;63009;-60
2021/05/03 02:20:31;;;;;;;0.60;0.60;;;;;;;4.52;71.56;97323.41;29373;198;63004;-60
2021/05/03 02:21:03;;;;;;;0.60;0.60;;;;;;;4.51;71.81;97324.47;29395;209;63016;-60
2021/05/03 02:21:38;;;;;;;0.60;0.60;;;;;;;4.49;71.91;97324.75;29394;338;64009;-60
2021/05/03 02:22:09;;;;;;;0.60;0.60;;;;;;;4.47;71.74;97326.84;29373;287;63008;-60
2021/05/03 02:22:40;;;;;;;0.60;0.60;;;;;;;4.48;71.65;97331.19;29373;212;63005;-59
2021/05/03 02:23:13;;;;;;;0.60;0.60;;;;;;;4.48;71.76;97333.03;29371;234;64030;-60
2021/05/03 02:23:46;;;;;;;0.60;0.60;;;;;;;4.48;71.69;97327.66;29395;224;63005;-60
2021/05/03 02:24:17;;;;;;;0.60;0.60;;;;;;;4.47;71.57;97326.03;29373;305;63009;-60
2021/05/03 02:24:48;;;;;;;0.60;0.60;;;;;;;4.46;71.88;97327.09;29373;242;63010;-59
2021/05/03 02:25:19;;;;;;;0.60;0.60;;;;;;;4.48;71.88;97320.44;29373;309;63009;-59
2021/05/03 02:25:50;;;;;;;0.60;0.60;;;;;;;4.49;71.64;97330.12;29395;283;63005;-60
2021/05/03 02:26:21;;;;;;;0.60;0.60;;;;;;;4.49;71.30;97330.12;29372;215;64009;-59
2021/05/03 02:26:53;;;;;;;0.60;0.60;;;;;;;4.47;71.85;97326.84;29395;204;63004;-60
2021/05/03 02:27:24;;;;;;;0.60;0.60;;;;;;;4.47;72.09;97331.41;29373;196;63009;-60
2021/05/03 02:27:58;;;;;;;0.60;0.60;;;;;;;4.44;71.91;97321.97;29373;219;63010;-60
2021/05/03 02:28:30;;;;;;;0.60;0.60;;;;;;;4.40;71.87;97330.75;29394;309;64012;-60
2021/05/03 02:29:01;;;;;;;0.60;0.60;;;;;;;4.38;71.97;97329.12;29371;324;64009;-60
2021/05/03 02:29:32;;;;;;;0.60;0.60;;;;;;;4.37;71.93;97326.69;29395;214;63008;-60
2021/05/03 02:30:05;;;;;;;0.60;0.60;;;;;;;4.38;72.16;97326.44;29373;329;63004;-60
2021/05/03 02:30:39;;;;;;;0.60;0.60;;;;;;;4.38;72.17;97321.06;29373;328;63009;-60
2021/05/03 02:31:11;;;;;;;0.60;0.60;;;;;;;4.39;71.79;97324.56;29373;286;63005;-60
2021/05/03 02:31:42;;;;;;;0.60;0.60;;;;;;;4.40;71.45;97326.19;29395;279;63009;-60
2021/05/03 02:32:14;;;;;;;0.60;0.60;;;;;;;4.40;72.07;97325.37;29373;242;63005;-60
2021/05/03 02:32:46;;;;;;;0.60;0.60;;;;;;;4.35;72.48;97336.84;29395;306;63009;-60
2021/05/03 02:33:17;;;;;;;0.60;0.60;;;;;;;4.34;72.35;97329.84;29395;384;63000;-60
2021/05/03 02:33:49;;;;;;;0.60;0.60;;;;;;;4.33;72.39;97325.53;29371;211;64013;-55
2021/05/03 02:34:21;;;;;;;0.60;0.60;;;;;;;4.33;72.91;97325.53;29373;205;63005;-59